Time;durP1;ratioP1;P1;durP2;ratioP2;P2;SDS_P1;SDS_P2;PMS_P1;PMS_P2;Temp;Humidity;BMP_temperature;BMP_pressure;BME280_temperature;BME280_humidity;BME280_pressure;Samples;Min_cycle;Max_cycle;Signal;HPM_P1;HPM_P2
2023/05/16 05:11:43;;;;;;;4.40;3.20;;;;;;;13.14;73.70;100263.44;105292;1286;615460;-89
2023/05/16 05:15:29;;;;;;;8.30;3.30;;;;;;;13.50;73.87;100276.30;101963;1283;5176160;-89
2023/05/16 05:19:16;;;;;;;3.30;3.10;;;;;;;14.05;74.00;100280.25;105839;1283;59257;-89
2023/05/16 05:23:03;;;;;;;3.90;3.00;;;;;;;14.82;73.80;100290.06;105950;1282;71835;-89
2023/05/16 05:26:49;;;;;;;3.00;2.80;;;;;;;15.73;73.45;100298.84;106007;1282;67605;-89
2023/05/16 05:33:39;;;;;;;2.30;2.00;;;;;;;17.22;72.95;100296.21;106055;1283;59252;-90
2023/05/16 05:37:25;;;;;;;1.90;1.80;;;;;;;17.93;72.40;100299.26;105798;1285;61939;-89
2023/05/16 05:43:48;;;;;;;2.20;2.00;;;;;;;18.97;71.81;100304.11;106046;1286;67930;-89
2023/05/16 05:47:35;;;;;;;6.90;1.80;;;;;;;19.45;71.62;100310.27;105842;1285;71085;-89
2023/05/16 05:51:21;;;;;;;2.50;1.70;;;;;;;19.85;71.33;100319.46;105956;1283;59678;-89
2023/05/16 05:55:08;;;;;;;2.00;1.80;;;;;;;20.15;70.81;100311.23;105926;1286;59523;-89
2023/05/16 05:58:54;;;;;;;2.00;1.90;;;;;;;20.48;70.53;100309.75;106411;1286;70770;-89
2023/05/16 06:02:13;;;;;;;3.80;2.10;;;;;;;20.64;70.39;100309.97;106055;1285;66529;-89
2023/05/16 06:05:59;;;;;;;2.70;2.00;;;;;;;20.93;70.18;100307.23;105964;1283;71156;-89
2023/05/16 06:09:45;;;;;;;2.90;1.90;;;;;;;21.46;69.56;100309.55;105934;1285;59583;-88
2023/05/16 06:13:37;;;;;;;2.40;1.90;;;;;;;21.91;69.09;100323.92;105849;1285;59483;-88
2023/05/16 06:17:12;;;;;;;3.40;1.90;;;;;;;22.36;68.94;100329.42;106609;1283;71822;-89
2023/05/16 06:20:58;;;;;;;2.10;1.70;;;;;;;22.74;68.36;100330.59;105845;1286;67427;-89
2023/05/16 06:24:45;;;;;;;2.40;2.00;;;;;;;23.30;67.78;100339.58;105788;1286;71355;-89
2023/05/16 06:28:12;;;;;;;2.00;1.90;;;;;;;23.94;67.65;100348.95;106057;1286;57871;-88
2023/05/16 06:32:01;;;;;;;4.80;1.60;;;;;;;24.06;67.49;100352.28;105809;1285;60088;-89
2023/05/16 06:35:43;;;;;;;2.20;1.80;;;;;;;24.41;67.19;100354.52;105850;1288;70715;-89
2023/05/16 06:39:32;;;;;;;1.90;1.80;;;;;;;24.20;66.65;100357.73;105939;1287;67353;-89
2023/05/16 06:43:18;;;;;;;4.20;1.80;;;;;;;24.02;66.33;100364.07;105898;1285;70209;-89
2023/05/16 06:47:06;;;;;;;2.00;1.80;;;;;;;25.33;65.89;100370.98;105950;1285;59825;-89
2023/05/16 06:50:52;;;;;;;4.50;2.20;;;;;;;25.94;64.86;100386.89;106675;1284;59039;-89
2023/05/16 06:54:38;;;;;;;2.30;1.90;;;;;;;26.99;64.24;100381.31;106000;1284;77655;-89
2023/05/16 06:58:26;;;;;;;2.00;1.80;;;;;;;27.11;63.57;100382.80;106159;1285;67485;-90
2023/05/16 07:02:15;;;;;;;2.70;2.40;;;;;;;27.26;63.05;100388.87;106439;1285;71227;-90
2023/05/16 07:06:01;;;;;;;5.00;2.30;;;;;;;26.27;63.44;100394.01;105733;1285;59762;-89
2023/05/16 07:09:48;;;;;;;2.30;2.00;;;;;;;26.02;62.76;100401.42;105802;1285;58769;-89
2023/05/16 07:13:35;;;;;;;4.20;2.20;;;;;;;26.03;62.12;100415.29;105843;1285;71563;-89
2023/05/16 07:17:23;;;;;;;2.50;2.00;;;;;;;25.46;61.35;100426.38;105763;1285;67929;-89
2023/05/16 07:21:10;;;;;;;3.70;2.40;;;;;;;25.64;60.69;100442.02;105755;1290;74059;-89
2023/05/16 07:24:59;;;;;;;2.40;2.20;;;;;;;24.80;60.38;100451.95;105773;1285;60601;-89
2023/05/16 07:28:43;;;;;;;3.80;2.50;;;;;;;24.70;60.42;100453.08;105797;1286;59512;-89
2023/05/16 07:32:29;;;;;;;4.20;2.40;;;;;;;24.49;60.17;100449.25;106037;1285;72253;-89
2023/05/16 07:36:20;;;;;;;2.50;1.90;;;;;;;24.49;59.23;100456.66;105923;1288;70012;-89
2023/05/16 07:40:05;;;;;;;2.40;2.20;;;;;;;24.15;58.81;100458.17;105937;1284;72324;-89
2023/05/16 07:43:51;;;;;;;3.80;2.00;;;;;;;24.31;58.54;100457.27;105956;1284;61790;-89
2023/05/16 07:47:40;;;;;;;3.20;2.20;;;;;;;24.98;57.29;100463.57;105965;1284;59618;-89
2023/05/16 07:51:28;;;;;;;2.40;2.20;;;;;;;27.14;56.58;100460.86;105910;1286;71715;-89
2023/05/16 07:55:17;;;;;;;2.50;1.90;;;;;;;29.17;55.65;100459.64;105810;1285;67417;-89
2023/05/16 07:59:04;;;;;;;2.70;2.10;;;;;;;30.97;55.17;100461.27;105852;1284;71202;-89
2023/05/16 08:02:51;;;;;;;2.60;2.40;;;;;;;31.51;54.42;100454.41;105881;1286;59534;-90
2023/05/16 08:06:21;;;;;;;3.00;2.40;;;;;;;32.86;53.86;100447.92;105853;1284;59522;-89
2023/05/16 08:10:07;;;;;;;2.70;2.00;;;;;;;34.38;54.05;100453.55;105908;1284;73417;-90
2023/05/16 08:13:18;;;;;;;2.30;2.10;;;;;;;35.23;52.84;100451.73;105982;1285;67234;-90
2023/05/16 08:16:46;;;;;;;2.10;1.90;;;;;;;36.34;52.56;100451.34;105914;1286;71268;-90
2023/05/16 08:20:30;;;;;;;1.80;1.70;;;;;;;36.38;51.57;100449.30;106033;1285;59538;-87
2023/05/16 08:24:16;;;;;;;2.40;2.20;;;;;;;34.22;51.03;100446.23;105843;1285;59613;-88
2023/05/16 08:28:07;;;;;;;1.70;1.60;;;;;;;32.62;50.65;100438.67;105864;1284;73043;-90
2023/05/16 08:31:53;;;;;;;2.50;1.80;;;;;;;31.69;49.74;100444.86;105856;1286;67169;-88
2023/05/16 08:35:40;;;;;;;2.40;2.10;;;;;;;30.96;48.42;100448.70;106120;1285;71370;-88
2023/05/16 08:39:25;;;;;;;1.60;1.50;;;;;;;30.25;47.47;100448.90;105882;1285;58340;-88
2023/05/16 08:43:11;;;;;;;1.90;1.70;;;;;;;28.26;47.14;100448.73;105949;1285;59803;-88
2023/05/16 08:47:00;;;;;;;4.10;2.40;;;;;;;26.88;47.03;100450.77;105889;1286;71791;-87
2023/05/16 08:50:43;;;;;;;2.10;1.70;;;;;;;26.46;46.12;100449.50;105852;1285;67655;-88
2023/05/16 08:54:33;;;;;;;2.20;1.70;;;;;;;25.41;45.73;100447.29;105811;1285;71833;-88
2023/05/16 08:58:20;;;;;;;1.60;1.50;;;;;;;24.75;45.73;100449.48;106011;1284;59474;-90
2023/05/16 09:01:50;;;;;;;2.00;1.60;;;;;;;24.15;45.51;100451.98;105830;1285;59109;-87
2023/05/16 09:05:36;;;;;;;1.90;1.70;;;;;;;23.50;45.48;100457.69;105822;1284;71819;-90
2023/05/16 09:09:23;;;;;;;4.50;2.00;;;;;;;22.96;45.16;100461.55;105858;1285;70017;-90
2023/05/16 09:13:09;;;;;;;1.50;1.40;;;;;;;22.61;45.31;100462.42;105942;1286;71358;-89
2023/05/16 09:16:55;;;;;;;4.20;1.70;;;;;;;22.22;45.03;100469.09;105797;1285;59112;-90
2023/05/16 09:20:46;;;;;;;1.80;1.70;;;;;;;21.89;45.13;100466.69;105810;1285;59903;-89
2023/05/16 09:24:33;;;;;;;1.90;1.70;;;;;;;21.74;45.31;100461.91;105764;1283;72727;-89
2023/05/16 09:28:28;;;;;;;2.70;1.90;;;;;;;21.63;45.04;100461.03;105761;1286;70228;-90
2023/05/16 09:32:09;;;;;;;3.20;1.40;;;;;;;21.51;45.01;100476.59;105787;1285;71345;-90
2023/05/16 09:35:56;;;;;;;3.20;1.70;;;;;;;21.21;45.01;100479.33;105793;1285;59742;-89
2023/05/16 09:39:42;;;;;;;1.80;1.60;;;;;;;21.13;45.12;100478.41;105862;1285;60160;-89
2023/05/16 09:43:42;;;;;;;1.40;1.30;;;;;;;21.06;45.19;100477.61;105830;1286;73060;-90
2023/05/16 09:47:28;;;;;;;2.60;2.00;;;;;;;21.05;45.36;100476.25;105884;1286;70808;-90
2023/05/16 09:51:15;;;;;;;4.20;1.70;;;;;;;21.02;45.32;100473.52;105768;1286;71202;-89
2023/05/16 09:55:13;;;;;;;4.20;2.10;;;;;;;20.92;45.31;100478.66;105818;1285;59490;-90
2023/05/16 09:58:59;;;;;;;4.00;2.00;;;;;;;20.72;45.39;100490.40;105983;1285;59522;-90
2023/05/16 10:02:46;;;;;;;2.50;2.30;;;;;;;20.64;45.55;100493.17;106063;1285;71557;-87
2023/05/16 10:06:32;;;;;;;2.60;2.40;;;;;;;20.61;45.74;100487.26;105823;1283;69081;-88
2023/05/16 10:10:19;;;;;;;5.50;2.00;;;;;;;20.64;45.76;100496.71;105888;1286;71195;-86
2023/05/16 10:14:06;;;;;;;2.30;2.10;;;;;;;20.61;45.79;100498.98;105804;1286;59538;-87
2023/05/16 10:17:59;;;;;;;4.50;2.20;;;;;;;20.45;45.69;100498.65;105804;1284;59539;-88
2023/05/16 10:21:28;;;;;;;2.50;2.20;;;;;;;20.23;45.91;100501.34;105861;1286;72289;-87
2023/05/16 10:25:17;;;;;;;5.30;2.60;;;;;;;20.15;45.99;100502.34;105820;1285;68462;-87
2023/05/16 10:29:06;;;;;;;4.90;2.60;;;;;;;20.09;46.06;100497.98;105141;1291;71630;-88
2023/05/16 10:32:52;;;;;;;3.30;2.50;;;;;;;20.06;46.29;100499.39;105084;1293;59778;-87
2023/05/16 10:36:38;;;;;;;2.70;2.50;;;;;;;20.03;46.53;100500.59;105166;1291;60981;-90
2023/05/16 10:40:27;;;;;;;2.80;2.60;;;;;;;20.08;46.73;100502.43;105110;1291;73347;-90
2023/05/16 10:44:17;;;;;;;2.90;2.70;;;;;;;20.23;46.77;100508.20;105182;1293;67565;-90
2023/05/16 10:48:03;;;;;;;3.20;2.90;;;;;;;20.28;46.58;100516.28;105107;1292;71775;-91
2023/05/16 10:52:03;;;;;;;2.80;2.60;;;;;;;20.03;46.78;100526.87;105131;1292;60011;-91
2023/05/16 10:55:52;;;;;;;3.20;3.00;;;;;;;19.75;47.14;100536.48;104707;1297;62919;-90
2023/05/16 10:59:42;;;;;;;3.90;2.90;;;;;;;19.66;47.29;100550.11;104684;1297;73454;-91
2023/05/16 11:03:28;;;;;;;3.40;3.20;;;;;;;19.66;47.46;100553.42;104666;1298;67397;-87
2023/05/16 11:07:21;;;;;;;5.60;4.50;;;;;;;19.51;47.36;100558.43;105111;1291;71343;-87
2023/05/16 11:11:06;;;;;;;5.40;5.00;;;;;;;19.36;47.60;100571.61;104538;1299;60522;-87
2023/05/16 11:14:58;;;;;;;5.70;5.20;;;;;;;19.23;47.83;100567.41;104600;1300;62897;-87
2023/05/16 11:18:47;;;;;;;5.30;4.70;;;;;;;19.22;47.90;100575.91;104646;1297;72765;-87
2023/05/16 11:22:42;;;;;;;4.70;4.30;;;;;;;19.08;47.76;100575.24;104681;1297;67311;-88
2023/05/16 11:26:32;;;;;;;4.70;4.20;;;;;;;18.98;48.00;100571.70;104259;1303;70780;-87
2023/05/16 11:30:20;;;;;;;8.30;5.20;;;;;;;19.15;48.36;100569.61;105052;1297;60586;-87
2023/05/16 11:34:05;;;;;;;7.20;6.50;;;;;;;19.40;48.36;100574.91;104531;1299;60322;-87
2023/05/16 11:37:52;;;;;;;6.60;4.40;;;;;;;19.49;48.19;100582.63;104526;1299;72352;-87
2023/05/16 11:41:43;;;;;;;4.70;4.30;;;;;;;19.58;48.46;100589.17;104528;1300;67847;-88
2023/05/16 11:45:38;;;;;;;8.40;4.90;;;;;;;19.57;48.53;100594.84;104568;1300;71175;-88
2023/05/16 11:49:38;;;;;;;;;;;;;;;;;;;;;
2023/05/16 11:53:14;;;;;;;7.00;5.10;;;;;;;19.80;48.76;100612.08;105051;1292;60452;-87
2023/05/16 11:57:00;;;;;;;5.40;5.00;;;;;;;19.75;48.71;100624.82;105075;1291;71922;-89
2023/05/16 12:00:58;;;;;;;5.60;5.00;;;;;;;19.59;48.61;100633.55;105372;1294;67441;-87
2023/05/16 12:04:49;;;;;;;8.20;5.00;;;;;;;19.57;48.89;100632.95;105016;1294;71399;-88
2023/05/16 12:08:34;;;;;;;5.20;4.70;;;;;;;19.61;48.86;100635.73;105121;1294;60452;-88
2023/05/16 12:12:21;;;;;;;6.00;5.50;;;;;;;19.47;48.79;100641.16;104864;1294;60475;-90
2023/05/16 12:16:07;;;;;;;6.20;5.60;;;;;;;19.32;49.09;100649.11;104926;1294;73701;-88
2023/05/16 12:19:58;;;;;;;6.30;5.70;;;;;;;19.16;49.17;100657.80;105098;1293;69159;-88
2023/05/16 12:23:44;;;;;;;6.80;6.10;;;;;;;19.09;49.15;100657.98;104976;1295;71391;-88
2023/05/16 12:27:31;;;;;;;8.30;6.20;;;;;;;19.05;49.32;100655.23;104930;1295;60416;-88
2023/05/16 12:31:20;;;;;;;7.30;6.70;;;;;;;18.95;49.41;100658.69;105037;1292;60562;-88
2023/05/16 12:35:10;;;;;;;7.40;6.80;;;;;;;18.90;49.58;100658.23;104990;1292;75344;-88
2023/05/16 12:38:56;;;;;;;7.30;6.80;;;;;;;18.87;49.50;100655.94;104954;1293;69966;-87
2023/05/16 12:42:46;;;;;;;8.30;6.90;;;;;;;18.85;49.79;100649.04;105704;1285;71420;-89
2023/05/16 12:46:32;;;;;;;9.10;6.90;;;;;;;18.81;49.94;100652.94;105828;1284;60485;-88
2023/05/16 12:50:27;;;;;;;6.90;6.10;;;;;;;18.83;49.95;100657.00;105750;1284;60418;-88
2023/05/16 12:54:14;;;;;;;9.50;6.80;;;;;;;18.79;50.06;100660.73;105791;1285;73793;-88
2023/05/16 12:58:01;;;;;;;8.60;6.50;;;;;;;18.72;49.96;100669.44;105810;1285;68184;-88
2023/05/16 13:01:50;;;;;;;7.70;6.80;;;;;;;18.55;50.02;100672.02;105774;1286;71145;-89
2023/05/16 13:05:36;;;;;;;7.90;6.60;;;;;;;18.40;50.26;100676.94;105718;1285;60445;-88
2023/05/16 13:09:26;;;;;;;8.50;6.30;;;;;;;18.31;50.37;100676.48;105776;1285;58524;-88
2023/05/16 13:13:05;;;;;;;7.00;6.40;;;;;;;18.22;50.54;100674.79;105909;1285;72538;-88
2023/05/16 13:16:31;;;;;;;8.50;7.40;;;;;;;18.19;50.70;100678.77;105767;1286;67424;-88
2023/05/16 13:19:57;;;;;;;8.20;7.10;;;;;;;18.17;50.63;100676.29;105851;1283;72285;-88
2023/05/16 13:23:36;;;;;;;;;;;;;;;;;;;;;
2023/05/16 13:26:49;;;;;;;8.90;7.40;;;;;;;18.12;51.04;100687.14;105699;1285;60553;-88
2023/05/16 13:30:15;;;;;;;8.70;8.00;;;;;;;18.11;51.03;100690.17;105741;1285;73511;-89
2023/05/16 13:33:42;;;;;;;8.90;7.90;;;;;;;18.08;51.16;100690.99;105891;1286;67334;-88
2023/05/16 13:37:09;;;;;;;8.80;7.20;;;;;;;18.02;51.32;100699.84;105784;1285;72533;-88
2023/05/16 13:40:35;;;;;;;7.90;7.10;;;;;;;17.94;51.52;100700.54;105522;1288;59122;-88
2023/05/16 13:44:01;;;;;;;8.10;7.40;;;;;;;17.92;51.75;100702.58;105755;1286;60239;-88
2023/05/16 13:47:29;;;;;;;8.20;7.30;;;;;;;17.88;51.84;100691.74;106716;1285;73662;-88
2023/05/16 13:50:58;;;;;;;8.90;8.10;;;;;;;17.73;51.75;100689.77;105966;1286;68476;-89
2023/05/16 13:54:25;;;;;;;12.10;7.70;;;;;;;17.56;51.85;100694.02;105677;1286;71900;-88
2023/05/16 13:57:51;;;;;;;8.60;7.80;;;;;;;17.43;51.96;100699.31;105755;1286;59037;-88
2023/05/16 14:01:17;;;;;;;8.70;7.90;;;;;;;17.31;52.09;100700.85;105859;1286;60374;-88
2023/05/16 14:04:44;;;;;;;10.70;7.60;;;;;;;17.17;52.41;100705.95;105759;1285;72644;-88
2023/05/16 14:08:10;;;;;;;8.90;8.00;;;;;;;17.08;52.52;100710.56;105816;1289;67160;-87
2023/05/16 14:19:43;;;;;;;8.00;7.30;;;;;;;17.17;52.85;100705.46;105787;1285;72389;-88
2023/05/16 14:23:30;;;;;;;8.40;7.60;;;;;;;17.23;53.22;100714.96;105712;1285;67244;-88
2023/05/16 14:27:14;;;;;;;7.70;6.90;;;;;;;17.28;53.01;100715.81;105659;1285;70403;-88
2023/05/16 14:30:39;;;;;;;8.90;6.90;;;;;;;17.35;53.03;100714.48;105671;1286;59282;-88
2023/05/16 14:34:07;;;;;;;8.90;8.20;;;;;;;17.34;53.12;100704.04;105590;1286;59761;-88
2023/05/16 14:37:33;;;;;;;6.90;6.30;;;;;;;17.32;53.30;100698.87;105586;1285;72615;-88
2023/05/16 14:41:00;;;;;;;7.10;6.50;;;;;;;17.37;53.28;100696.91;105626;1286;67133;-88
2023/05/16 14:44:26;;;;;;;7.10;6.20;;;;;;;17.43;53.46;100701.04;105620;1286;71429;-88
2023/05/16 14:47:54;;;;;;;6.40;5.80;;;;;;;17.44;53.43;100706.38;105644;1287;59330;-88
2023/05/16 14:51:20;;;;;;;7.20;6.60;;;;;;;17.40;53.54;100704.48;105682;1286;59270;-88
2023/05/16 14:54:47;;;;;;;8.60;6.30;;;;;;;17.35;53.61;100711.83;105627;1285;72731;-88
2023/05/16 14:58:17;;;;;;;10.50;7.20;;;;;;;17.24;53.23;100717.69;105659;1285;68722;-88
2023/05/16 15:01:42;;;;;;;9.30;7.30;;;;;;;17.05;53.40;100724.97;105499;1291;70750;-88
2023/05/16 15:05:09;;;;;;;7.70;6.90;;;;;;;16.86;53.62;100729.21;105554;1288;60482;-88
2023/05/16 15:50:42;;;;;;;21.20;14.50;;;;;;;15.38;55.19;100769.27;105837;1285;73097;-89
2023/05/16 15:53:55;;;;;;;16.70;14.40;;;;;;;15.35;55.24;100763.65;105829;1286;66534;-89
2023/05/16 16:02:56;;;;;;;19.20;13.40;;;;;;;15.16;55.47;100765.31;105666;1285;60345;-89
2023/05/16 16:06:13;;;;;;;16.40;12.50;;;;;;;15.09;55.58;100764.31;105681;1287;73735;-89
2023/05/16 16:10:00;;;;;;;13.60;11.40;;;;;;;15.05;55.81;100767.94;105648;1290;68505;-89
2023/05/16 16:13:47;;;;;;;14.70;11.80;;;;;;;15.05;55.80;100771.27;105602;1287;72704;-89
2023/05/16 16:19:57;;;;;;;13.10;9.80;;;;;;;15.00;56.01;100775.23;105690;1284;60304;-89
2023/05/16 16:32:21;;;;;;;15.30;9.90;;;;;;;14.80;56.13;100775.86;106423;1286;59234;-89
2023/05/16 16:38:42;;;;;;;12.90;10.00;;;;;;;14.70;56.40;100783.98;105715;1286;73791;-89
2023/05/16 16:42:30;;;;;;;11.10;8.40;;;;;;;14.67;56.45;100785.46;105744;1285;68815;-89
2023/05/16 16:46:00;;;;;;;10.40;8.20;;;;;;;14.65;56.51;100791.92;105711;1285;72975;-89
2023/05/16 16:49:26;;;;;;;10.30;8.10;;;;;;;14.64;56.44;100798.73;105983;1285;60540;-89
2023/05/16 16:52:46;;;;;;;10.10;7.60;;;;;;;14.61;56.50;100793.45;105812;1286;60409;-89
2023/05/16 16:56:32;;;;;;;13.60;8.20;;;;;;;14.57;56.66;100801.00;105635;1285;73316;-89
2023/05/16 16:59:59;;;;;;;8.60;7.60;;;;;;;14.53;56.75;100803.06;105827;1285;66758;-89
2023/05/16 17:03:25;;;;;;;12.60;7.30;;;;;;;14.50;56.75;100809.39;105670;1288;72391;-87
2023/05/16 17:06:51;;;;;;;12.70;7.50;;;;;;;14.48;56.95;100809.80;105699;1285;60347;-89
2023/05/16 17:18:28;;;;;;;9.20;6.10;;;;;;;14.36;56.98;100821.73;105616;1287;59246;-88
2023/05/16 19:08:13;;;;;;;;;;;;;;;13.50;58.37;100898.71;101786;1291;61860;-88
